Time;durP1;ratioP1;P1;durP2;ratioP2;P2;SDS_P1;SDS_P2;PMS_P1;PMS_P2;Temp;Humidity;BMP_temperature;BMP_pressure;BME280_temperature;BME280_humidity;BME280_pressure;Samples;Min_cycle;Max_cycle;Signal;HPM_P1;HPM_P2
2022/09/11 00:00:45;;;;;;;;;12.25;11.75;;;;;17.70;72.33;101216.84;5053617;28;46067;-78
2022/09/11 00:03:11;;;;;;;;;11.25;10.00;;;;;17.67;72.35;101211.78;5052868;28;45614;-79
2022/09/11 00:05:38;;;;;;;;;11.25;10.50;;;;;17.51;72.44;101187.63;5053553;28;45780;-79
2022/09/11 00:08:06;;;;;;;;;9.00;9.00;;;;;17.59;72.54;101206.34;5052934;28;45631;-77
2022/09/11 00:10:37;;;;;;;;;10.25;10.00;;;;;17.60;72.54;101208.03;5053147;28;47293;-79
2022/09/11 00:13:03;;;;;;;;;11.00;11.00;;;;;17.52;71.92;101191.97;5053652;28;45883;-77
2022/09/11 00:15:29;;;;;;;;;12.00;10.25;;;;;17.59;71.97;101201.03;5054198;28;45863;-78
2022/09/11 00:17:55;;;;;;;;;11.50;11.00;;;;;17.52;72.09;101192.81;5052919;28;46861;-77
2022/09/11 00:20:21;;;;;;;;;8.50;8.50;;;;;17.55;72.55;101195.16;5053029;28;47453;-76
2022/09/11 00:22:47;;;;;;;;;11.00;9.00;;;;;17.59;71.98;101193.97;5053132;28;45640;-78
2022/09/11 00:28:35;;;;;;;;;11.00;11.00;;;;;17.61;72.29;101199.94;5053459;28;46107;-80
2022/09/11 00:31:04;;;;;;;;;10.25;10.00;;;;;17.61;72.07;101194.66;5053272;28;46481;-79
2022/09/11 00:33:29;;;;;;;;;10.25;9.50;;;;;17.62;72.26;101190.19;5053478;28;45638;-80
2022/09/11 00:35:57;;;;;;;;;11.50;10.25;;;;;17.60;72.36;101190.31;5051795;28;45615;-79
2022/09/11 00:38:28;;;;;;;;;9.00;8.75;;;;;17.66;72.13;101199.53;5053436;28;45554;-81
2022/09/11 00:40:57;;;;;;;;;14.25;12.00;;;;;17.64;72.04;101192.69;5052872;28;46294;-80
2022/09/11 00:43:23;;;;;;;;;10.00;10.00;;;;;17.67;71.92;101201.19;5068642;28;45708;-80
2022/09/11 00:45:56;;;;;;;;;9.75;9.75;;;;;17.68;71.91;101199.38;5053427;28;46054;-82
2022/09/11 00:48:26;;;;;;;;;12.00;10.00;;;;;17.67;72.41;101193.25;5053170;28;45648;-80
2022/09/11 00:50:53;;;;;;;;;9.50;9.50;;;;;17.68;72.62;101196.72;5052918;28;46409;-79
2022/09/11 00:53:22;;;;;;;;;10.00;9.25;;;;;17.65;72.72;101189.09;5052744;28;45750;-78
2022/09/11 00:55:52;;;;;;;;;10.75;9.75;;;;;17.64;72.54;101188.25;5052648;28;45855;-78
2022/09/11 00:58:25;;;;;;;;;11.00;9.75;;;;;17.60;72.10;101184.19;5052903;28;47621;-76
2022/09/11 01:00:53;;;;;;;;;12.75;11.00;;;;;17.60;72.14;101187.66;5052865;28;46054;-78
2022/09/11 01:03:18;;;;;;;;;12.00;11.00;;;;;17.59;72.18;101180.72;5052866;28;45703;-78
2022/09/11 01:05:45;;;;;;;;;11.75;10.75;;;;;17.54;72.08;101174.13;5053051;28;45654;-78
2022/09/11 01:08:12;;;;;;;;;10.25;9.00;;;;;17.57;72.29;101187.94;5052836;28;46453;-79
2022/09/11 01:14:46;;;;;;;;;12.00;9.00;;;;;17.52;72.60;101168.97;5044818;28;46015;-79
2022/09/11 01:17:30;;;;;;;;;10.75;10.00;;;;;17.54;72.19;101177.59;5056316;28;45573;-79
2022/09/11 01:20:17;;;;;;;;;10.75;10.50;;;;;17.52;72.27;101170.78;5056252;28;45796;-77
2022/09/11 01:22:48;;;;;;;;;10.00;9.00;;;;;17.51;72.13;101177.03;5055982;28;46279;-77
2022/09/11 01:28:48;;;;;;;;;13.00;10.50;;;;;17.48;72.08;101164.94;5056095;28;45691;-78
2022/09/11 01:31:19;;;;;;;;;10.50;10.00;;;;;17.42;72.21;101159.34;5055760;28;46526;-78
2022/09/11 01:34:04;;;;;;;;;11.75;11.00;;;;;17.41;72.65;101163.81;5056189;28;46359;-77
2022/09/11 01:36:37;;;;;;;;;10.25;10.00;;;;;17.41;72.29;101163.81;5071124;28;45846;-79
2022/09/11 01:39:03;;;;;;;;;10.75;10.00;;;;;17.39;72.53;101162.25;5056088;28;45567;-77
2022/09/11 01:42:13;;;;;;;;;11.25;9.75;;;;;17.38;72.77;101163.25;5055961;28;45631;-78
2022/09/11 01:44:44;;;;;;;;;10.75;10.25;;;;;17.30;72.50;101153.34;5055881;28;46845;-76
2022/09/11 01:47:11;;;;;;;;;11.25;10.00;;;;;17.37;72.63;101165.06;5055645;28;45745;-77
2022/09/11 01:50:02;;;;;;;;;8.50;8.00;;;;;17.37;72.31;101158.94;5055758;28;45803;-77
2022/09/11 01:52:44;;;;;;;;;11.00;10.00;;;;;17.33;72.41;101158.34;5055593;28;47355;-78
2022/09/11 01:55:14;;;;;;;;;9.25;9.25;;;;;17.30;72.32;101152.50;5055920;28;46741;-79
2022/09/11 01:57:52;;;;;;;;;13.00;10.50;;;;;17.26;72.43;101145.81;5055398;28;45678;-78
2022/09/11 02:00:17;;;;;;;;;13.75;12.00;;;;;17.29;72.91;101159.59;5055744;28;45624;-77
2022/09/11 02:02:54;;;;;;;;;12.00;9.75;;;;;17.27;72.92;101156.28;5055372;28;46835;-78
2022/09/11 02:05:29;;;;;;;;;7.00;6.50;;;;;17.26;73.07;101157.25;5055317;28;46375;-77
2022/09/11 02:07:58;;;;;;;;;10.00;8.75;;;;;17.27;73.18;101158.94;5055147;28;45696;-78
2022/09/11 02:10:38;;;;;;;;;11.25;10.25;;;;;17.25;73.11;101160.03;5055822;28;45773;-77
2022/09/11 02:13:22;;;;;;;;;9.25;9.00;;;;;17.23;72.97;101154.03;5055314;28;45805;-79
2022/09/11 02:15:54;;;;;;;;;11.00;9.25;;;;;17.22;72.57;101158.47;5055043;28;46628;-78
2022/09/11 02:18:28;;;;;;;;;11.25;10.75;;;;;17.22;72.56;101158.47;5055533;28;45751;-80
2022/09/11 02:20:53;;;;;;;;;9.50;8.75;;;;;17.22;72.58;101149.72;5055576;28;45768;-81
2022/09/11 02:23:20;;;;;;;;;12.50;11.00;;;;;17.23;72.73;101159.31;5055332;28;45660;-78
2022/09/11 02:25:46;;;;;;;;;11.50;10.00;;;;;17.24;72.39;101161.00;5053535;28;46417;-76
2022/09/11 02:28:12;;;;;;;;;11.75;9.00;;;;;17.25;72.87;101155.56;5055308;28;45689;-78
2022/09/11 02:30:40;;;;;;;;;11.00;9.75;;;;;17.24;72.45;101145.94;5055121;28;45724;-78
2022/09/11 02:33:25;;;;;;;;;11.00;10.00;;;;;17.27;72.81;101152.78;5055178;28;45588;-77
2022/09/11 02:35:54;;;;;;;;;11.75;11.00;;;;;17.28;72.83;101152.63;5054828;28;46036;-79
2022/09/11 02:38:40;;;;;;;;;10.75;10.00;;;;;17.27;72.56;101153.63;5055095;28;45713;-79
2022/09/11 02:41:16;;;;;;;;;14.00;13.00;;;;;17.28;73.09;101165.03;5055071;28;45813;-78
2022/09/11 02:44:01;;;;;;;;;12.75;10.25;;;;;17.26;72.95;101162.56;5055160;28;45811;-78
2022/09/11 02:46:44;;;;;;;;;12.00;10.50;;;;;17.26;72.63;101159.06;5054635;28;45727;-76
2022/09/11 02:49:44;;;;;;;;;11.50;11.25;;;;;17.19;72.85;101151.66;5055036;28;45684;-79
2022/09/11 02:52:31;;;;;;;;;13.00;12.00;;;;;17.22;73.08;101155.03;5055324;28;45602;-79
2022/09/11 02:58:28;;;;;;;;;10.75;9.00;;;;;17.16;73.05;101151.94;5054671;28;45773;-77
2022/09/11 03:00:59;;;;;;;;;10.25;10.25;;;;;17.16;73.07;101156.41;5053914;28;45825;-77
2022/09/11 03:03:24;;;;;;;;;12.00;11.00;;;;;17.18;72.62;101160.56;5054909;28;45843;-77
2022/09/11 03:05:49;;;;;;;;;14.50;10.75;;;;;17.15;73.00;101154.72;5054264;28;45601;-79
2022/09/11 03:08:18;;;;;;;;;13.75;11.00;;;;;17.17;73.04;101152.75;5054211;28;46762;-78
2022/09/11 03:14:05;;;;;;;;;11.50;11.50;;;;;17.15;72.80;101146.78;5053563;28;45998;-77
2022/09/11 03:16:31;;;;;;;;;11.50;10.25;;;;;17.19;73.02;101154.31;5054280;28;45637;-77
2022/09/11 03:18:56;;;;;;;;;12.75;10.75;;;;;17.19;72.85;101149.00;5054183;28;45965;-79
2022/09/11 03:21:21;;;;;;;;;11.75;10.25;;;;;17.22;72.80;101153.19;5054497;28;45672;-77
2022/09/11 03:23:46;;;;;;;;;13.00;13.00;;;;;17.22;72.29;101147.06;5069973;28;45671;-78
2022/09/11 03:29:34;;;;;;;;;14.50;12.50;;;;;17.12;72.58;101139.94;5053944;28;46156;-77
2022/09/11 03:31:59;;;;;;;;;12.00;10.50;;;;;17.18;73.08;101147.34;5054387;28;45806;-78
2022/09/11 03:34:25;;;;;;;;;13.00;11.50;;;;;17.16;73.09;101149.31;5054329;28;45799;-76
2022/09/11 03:36:51;;;;;;;;;12.25;11.50;;;;;17.13;72.81;101154.84;5053753;28;46303;-76
2022/09/11 03:45:42;;;;;;;;;11.75;11.00;;;;;16.96;72.98;101136.16;5053642;28;45559;-76
2022/09/11 03:48:07;;;;;;;;;14.50;12.25;;;;;17.01;72.74;101145.34;5086447;27;47699;-77
2022/09/11 03:50:33;;;;;;;;;14.75;12.00;;;;;17.00;73.41;101151.66;5053910;28;46071;-78
2022/09/11 03:52:58;;;;;;;;;10.75;8.50;;;;;16.97;73.01;101145.78;5053822;28;45641;-77
2022/09/11 03:55:24;;;;;;;;;11.50;10.50;;;;;16.94;72.91;101143.41;5052636;28;45906;-78
2022/09/11 03:57:49;;;;;;;;;13.00;12.75;;;;;16.97;73.01;101145.78;5068940;28;47323;-75
2022/09/11 04:00:14;;;;;;;;;12.00;12.00;;;;;16.92;72.83;101146.19;5053884;28;46406;-77
2022/09/11 04:02:40;;;;;;;;;14.00;12.00;;;;;16.98;72.95;101152.75;5054030;28;45646;-75
2022/09/11 04:05:07;;;;;;;;;10.50;10.00;;;;;16.92;72.86;101143.53;5053757;28;45668;-77
2022/09/11 04:07:33;;;;;;;;;13.75;12.50;;;;;16.95;73.23;101145.91;5053318;28;45568;-76
2022/09/11 04:09:59;;;;;;;;;15.75;12.25;;;;;16.94;73.38;101143.41;5053430;28;46181;-77
2022/09/11 04:12:24;;;;;;;;;12.50;12.25;;;;;16.90;72.85;101144.63;5053615;28;45611;-76
2022/09/11 04:14:50;;;;;;;;;13.75;13.00;;;;;16.90;73.45;101145.47;5053538;28;45754;-76
2022/09/11 04:17:16;;;;;;;;;11.75;10.75;;;;;16.88;73.21;101147.44;5053145;28;46504;-79
2022/09/11 04:19:41;;;;;;;;;12.00;11.50;;;;;16.82;73.58;101140.03;5053671;28;46292;-77
2022/09/11 04:22:07;;;;;;;;;13.25;13.25;;;;;16.84;73.48;101145.22;5053240;28;45649;-76
2022/09/11 04:24:33;;;;;;;;;15.50;14.75;;;;;16.76;73.74;101144.06;5053504;28;45969;-77
2022/09/11 04:30:21;;;;;;;;;13.00;11.50;;;;;16.74;73.55;101153.09;5053235;28;45771;-76
2022/09/11 04:32:46;;;;;;;;;14.25;12.00;;;;;16.73;73.28;101152.25;5068643;28;45946;-78
2022/09/11 04:35:12;;;;;;;;;12.25;12.25;;;;;16.75;73.55;101158.25;5068962;28;45596;-77
2022/09/11 04:37:37;;;;;;;;;14.00;11.00;;;;;16.76;73.00;101153.81;5052730;28;46525;-76
2022/09/11 04:40:02;;;;;;;;;14.75;12.25;;;;;16.76;73.16;101159.94;5053116;28;46080;-77
2022/09/11 04:42:28;;;;;;;;;15.50;12.50;;;;;16.76;73.14;101157.31;5053292;28;45745;-76
2022/09/11 04:44:53;;;;;;;;;10.75;9.50;;;;;16.77;73.15;101166.09;5053170;28;45858;-76
2022/09/11 04:47:19;;;;;;;;;10.00;10.00;;;;;16.78;73.17;101162.47;5053078;28;46756;-75
2022/09/11 04:49:45;;;;;;;;;13.75;13.25;;;;;16.78;72.97;101165.97;5054754;28;46495;-78
2022/09/11 04:52:11;;;;;;;;;13.50;13.50;;;;;16.77;72.69;101161.63;5055553;28;45807;-76
2022/09/11 04:54:36;;;;;;;;;12.00;11.25;;;;;16.73;73.09;101160.19;5056750;28;45904;-76
2022/09/11 05:00:23;;;;;;;;;15.00;12.25;;;;;16.72;72.91;101165.66;5056652;28;46143;-79
2022/09/11 05:02:49;;;;;;;;;13.50;12.00;;;;;16.78;72.88;101179.19;5056719;28;45613;-78
2022/09/11 05:05:14;;;;;;;;;15.00;12.50;;;;;16.72;72.63;101165.66;5056552;28;45932;-78
2022/09/11 05:07:40;;;;;;;;;11.50;11.00;;;;;16.82;72.68;101178.91;5056251;28;46376;-76
2022/09/11 05:10:05;;;;;;;;;12.50;11.25;;;;;16.81;72.70;101180.72;5056392;28;45789;-78
2022/09/11 05:12:31;;;;;;;;;14.00;13.50;;;;;16.83;72.85;101185.88;5056592;28;45573;-77
2022/09/11 05:14:56;;;;;;;;;12.75;11.00;;;;;16.82;72.80;101185.03;5056272;28;45578;-77
2022/09/11 05:17:22;;;;;;;;;15.00;14.00;;;;;16.81;72.28;101185.16;5055683;28;47439;-77
2022/09/11 05:19:48;;;;;;;;;12.00;11.00;;;;;16.79;72.73;101180.84;5056063;28;47226;-79
2022/09/11 05:22:14;;;;;;;;;14.25;14.00;;;;;16.80;72.81;101181.69;5054800;28;45968;-78
2022/09/11 05:24:40;;;;;;;;;14.25;12.00;;;;;16.83;72.70;101186.72;5056646;28;45669;-76
2022/09/11 05:30:27;;;;;;;;;15.25;13.75;;;;;16.83;72.59;101184.06;5055800;28;45980;-78
2022/09/11 05:32:54;;;;;;;;;14.00;11.25;;;;;16.82;72.77;101189.50;5055918;28;45755;-77
2022/09/11 05:35:23;;;;;;;;;14.75;14.50;;;;;16.83;72.80;101201.75;5054659;28;45629;-76
2022/09/11 05:37:48;;;;;;;;;16.75;14.00;;;;;16.81;72.65;101195.75;5055696;28;46575;-78
2022/09/11 05:40:15;;;;;;;;;14.25;13.25;;;;;16.69;72.89;101192.38;5055966;28;45626;-77
2022/09/11 05:42:40;;;;;;;;;13.25;12.00;;;;;16.77;72.92;101203.97;5055768;28;45705;-79
2022/09/11 05:45:06;;;;;;;;;11.75;10.75;;;;;16.69;73.09;101195.84;5056039;28;45704;-76
2022/09/11 05:47:32;;;;;;;;;16.00;12.50;;;;;16.71;72.90;101204.50;5055277;28;46433;-78
2022/09/11 05:49:57;;;;;;;;;15.00;13.75;;;;;16.74;72.69;101206.88;5055464;28;47348;-77
2022/09/11 05:52:23;;;;;;;;;13.00;12.25;;;;;16.74;72.77;101206.88;5055848;28;45701;-76
2022/09/11 05:54:49;;;;;;;;;15.50;12.50;;;;;16.74;72.65;101204.22;5056004;28;45773;-76
2022/09/11 06:00:36;;;;;;;;;14.75;13.25;;;;;16.75;72.83;101213.84;5053984;28;45718;-78
2022/09/11 06:03:01;;;;;;;;;16.00;13.75;;;;;16.71;72.69;101212.44;5055598;28;45672;-77
2022/09/11 06:05:27;;;;;;;;;17.25;15.75;;;;;16.72;72.83;101210.63;5055254;28;45614;-76
2022/09/11 06:07:52;;;;;;;;;15.25;14.50;;;;;16.73;72.91;101213.13;5070974;28;46402;-78
2022/09/11 06:10:18;;;;;;;;;16.00;15.75;;;;;16.73;72.72;101223.72;5055356;28;46071;-77
2022/09/11 06:16:33;;;;;;;;;13.25;11.75;;;;;16.75;72.68;101218.28;5048485;28;45703;-76
2022/09/11 06:18:58;;;;;;;;;18.00;16.75;;;;;16.78;73.00;101224.19;5053901;28;47633;-76
2022/09/11 06:21:26;;;;;;;;;15.00;14.75;;;;;16.79;72.89;101224.97;5055270;28;45906;-78
2022/09/11 06:23:52;;;;;;;;;18.00;16.50;;;;;16.77;73.26;101225.13;5055013;28;45792;-77
2022/09/11 06:26:20;;;;;;;;;17.25;15.75;;;;;16.81;72.54;101224.84;5054929;28;45688;-78
2022/09/11 06:28:46;;;;;;;;;17.75;16.25;;;;;16.84;72.52;101227.25;5054913;28;46523;-78
2022/09/11 06:31:17;;;;;;;;;47.50;38.75;;;;;16.76;72.83;101218.16;5055291;28;46043;-78
2022/09/11 06:33:43;;;;;;;;;43.25;35.25;;;;;16.89;72.86;101236.47;5055317;28;45767;-77
2022/09/11 06:36:13;;;;;;;;;28.25;25.75;;;;;16.91;72.63;101231.03;5054877;28;45737;-75
2022/09/11 06:38:38;;;;;;;;;26.00;24.00;;;;;16.89;72.57;101223.25;5055087;28;47298;-77
2022/09/11 06:41:06;;;;;;;;;22.00;20.75;;;;;16.93;73.05;101224.63;5054601;28;47161;-77
2022/09/11 06:43:32;;;;;;;;;27.50;22.00;;;;;16.98;72.97;101229.53;5053553;28;45809;-78
2022/09/11 06:46:11;;;;;;;;;39.75;35.50;;;;;16.89;72.32;101214.47;5055016;28;45820;-78
2022/09/11 06:48:36;;;;;;;;;28.25;23.50;;;;;17.02;72.85;101233.56;5055042;28;46426;-78
2022/09/11 06:51:03;;;;;;;;;23.00;21.50;;;;;16.97;72.55;101222.53;5054949;28;46026;-78
2022/09/11 06:53:28;;;;;;;;;24.00;23.00;;;;;17.06;72.56;101230.50;5055122;28;45750;-77
2022/09/11 06:55:58;;;;;;;;;18.50;17.50;;;;;17.08;72.67;101228.56;5055119;28;45753;-80
2022/09/11 06:58:24;;;;;;;;;22.50;19.50;;;;;17.09;72.35;101221.47;5056048;28;45709;-82
2022/09/11 07:00:49;;;;;;;;;18.75;18.00;;;;;17.08;72.30;101211.84;5057029;28;45625;-79
2022/09/11 07:03:15;;;;;;;;;22.25;21.00;;;;;17.16;72.63;101222.59;5057006;28;45559;-82
2022/09/11 07:05:46;;;;;;;;;18.75;18.25;;;;;17.18;72.27;101220.66;5055350;28;45557;-81
2022/09/11 07:08:11;;;;;;;;;26.00;23.75;;;;;17.21;72.10;101225.69;5055166;28;46691;-81
2022/09/11 07:10:36;;;;;;;;;19.00;17.75;;;;;17.17;72.56;101218.97;5054641;28;47328;-80
2022/09/11 07:16:24;;;;;;;;;18.25;17.50;;;;;17.24;71.87;101220.09;5050578;28;45705;-81
2022/09/11 07:18:50;;;;;;;;;19.00;18.00;;;;;17.28;72.26;101218.84;5054712;28;45704;-78
2022/09/11 07:21:21;;;;;;;;;22.00;21.00;;;;;17.31;72.21;101229.19;5054626;28;46183;-76
2022/09/11 07:23:49;;;;;;;;;19.50;19.00;;;;;17.35;72.04;101222.63;5054167;28;45738;-80
2022/09/11 07:26:17;;;;;;;;;20.00;19.25;;;;;17.34;71.83;101213.00;5052843;28;45575;-79
2022/09/11 07:28:43;;;;;;;;;25.75;24.00;;;;;17.43;72.41;101233.38;5054484;28;46343;-82
2022/09/11 07:31:15;;;;;;;;;24.25;22.50;;;;;17.47;71.85;101236.59;5052930;28;47365;-80
2022/09/11 07:33:47;;;;;;;;;24.75;21.00;;;;;17.53;72.38;101236.03;5054356;28;45967;-78
2022/09/11 07:36:24;;;;;;;;;27.25;24.50;;;;;17.53;72.41;101234.22;5053894;28;45803;-81
2022/09/11 07:38:50;;;;;;;;;23.75;23.00;;;;;17.59;72.30;101232.84;5052667;28;46437;-81
2022/09/11 07:41:18;;;;;;;;;22.50;20.75;;;;;17.64;71.86;101229.81;5053877;28;46343;-79
2022/09/11 07:43:49;;;;;;;;;22.00;20.50;;;;;17.67;72.10;101233.00;5054013;28;45883;-77
2022/09/11 07:46:15;;;;;;;;;21.50;18.75;;;;;17.70;72.27;101237.19;5053517;28;45629;-78
2022/09/11 07:48:42;;;;;;;;;22.00;20.25;;;;;17.72;71.83;101233.41;5053814;28;46885;-78
2022/09/11 07:51:09;;;;;;;;;21.00;19.00;;;;;17.76;72.24;101240.09;5053789;28;46975;-76
2022/09/11 07:53:44;;;;;;;;;18.00;17.50;;;;;17.79;72.03;101228.41;5054023;28;45508;-77
2022/09/11 07:56:13;;;;;;;;;21.00;17.25;;;;;17.81;72.16;101232.59;5053717;28;45577;-79
2022/09/11 07:58:40;;;;;;;;;21.25;18.75;;;;;17.81;71.76;101218.50;5053990;28;46667;-76
2022/09/11 08:01:16;;;;;;;;;23.50;20.75;;;;;17.84;71.68;101223.50;5053366;28;46459;-77
2022/09/11 08:03:43;;;;;;;;;20.50;18.00;;;;;17.79;71.62;101212.50;5053913;28;45770;-79
2022/09/11 08:06:13;;;;;;;;;14.50;14.50;;;;;17.96;71.62;101227.69;5053623;28;45839;-80
2022/09/11 08:08:40;;;;;;;;;20.75;17.75;;;;;18.01;71.82;101233.41;5053586;28;45845;-77
2022/09/11 08:11:09;;;;;;;;;18.25;17.25;;;;;18.01;71.81;101225.47;5053529;28;47380;-79
2022/09/11 08:16:56;;;;;;;;;21.50;18.75;;;;;18.12;71.27;101227.94;5048409;28;45733;-77
2022/09/11 08:19:22;;;;;;;;;15.00;14.25;;;;;18.16;71.64;101225.84;5053095;28;47181;-80
2022/09/11 08:21:49;;;;;;;;;17.25;15.00;;;;;18.15;71.67;101217.03;5053234;28;46184;-81
2022/09/11 08:24:16;;;;;;;;;16.50;16.50;;;;;18.23;70.94;101219.00;5051027;28;45686;-79
2022/09/11 08:26:41;;;;;;;;;16.25;15.75;;;;;18.23;70.92;101217.19;5053575;28;45877;-79
2022/09/11 08:29:07;;;;;;;;;17.00;15.50;;;;;18.28;71.00;101222.88;5053374;28;45570;-77
2022/09/11 08:31:34;;;;;;;;;17.75;17.00;;;;;18.22;71.25;101210.19;5053101;28;46116;-78
2022/09/11 08:34:00;;;;;;;;;20.75;18.00;;;;;18.28;70.76;101206.13;5053580;28;45716;-79
2022/09/11 08:36:26;;;;;;;;;18.75;17.00;;;;;18.28;71.20;101214.09;5053256;28;45788;-78
2022/09/11 08:38:52;;;;;;;;;17.00;16.25;;;;;18.43;71.21;101234.72;5053357;28;46261;-79
2022/09/11 08:41:24;;;;;;;;;17.50;16.50;;;;;18.45;70.59;101226.63;5053397;28;45621;-79
2022/09/11 08:47:17;;;;;;;;;19.00;18.25;;;;;18.51;70.91;101239.31;5053157;28;45575;-78
2022/09/11 08:49:52;;;;;;;;;19.50;17.25;;;;;18.50;70.47;101228.84;5051726;28;46573;-79
2022/09/11 08:52:17;;;;;;;;;19.50;17.25;;;;;18.58;70.46;101239.56;5053176;28;46294;-77
2022/09/11 08:54:46;;;;;;;;;21.50;18.25;;;;;18.60;70.22;101230.50;5053299;28;46008;-78
2022/09/11 08:57:45;;;;;;;;;18.00;17.00;;;;;18.63;69.86;101240.81;5053002;28;45621;-79
2022/09/11 09:00:21;;;;;;;;;18.50;17.25;;;;;18.67;70.48;101244.03;5053164;28;45684;-79
2022/09/11 09:03:21;;;;;;;;;20.00;18.00;;;;;18.71;70.05;101245.41;5052737;28;47294;-80
2022/09/11 09:05:58;;;;;;;;;19.50;18.00;;;;;18.74;69.64;101248.59;5052728;28;45728;-79
2022/09/11 09:08:34;;;;;;;;;19.75;18.25;;;;;18.74;69.56;101240.63;5053635;28;45637;-80
2022/09/11 09:11:27;;;;;;;;;19.50;19.00;;;;;18.81;69.76;101243.53;5052763;28;47524;-77
2022/09/11 09:14:14;;;;;;;;;15.75;15.00;;;;;18.84;70.04;101252.03;5052871;28;47236;-78
2022/09/11 09:16:52;;;;;;;;;19.75;19.00;;;;;18.90;69.27;101249.78;5053061;28;45676;-80
2022/09/11 09:19:37;;;;;;;;;25.75;24.25;;;;;18.93;69.14;101250.34;5053280;28;45557;-76
2022/09/11 09:22:26;;;;;;;;;16.75;15.75;;;;;18.98;69.57;101255.22;5052921;28;46539;-79
2022/09/11 09:25:00;;;;;;;;;19.50;19.50;;;;;19.01;69.50;101254.91;5053300;28;46048;-79
2022/09/11 09:30:56;;;;;;;;;17.25;16.00;;;;;19.07;68.72;101252.50;5053039;28;45587;-79
2022/09/11 09:33:27;;;;;;;;;19.50;17.50;;;;;19.12;68.88;101260.00;5052824;28;47332;-78
2022/09/11 09:35:56;;;;;;;;;16.75;14.00;;;;;19.13;68.51;101253.72;5053965;28;46352;-77
2022/09/11 09:38:27;;;;;;;;;17.25;16.00;;;;;19.17;68.14;101263.91;5056206;28;45700;-80
2022/09/11 09:41:10;;;;;;;;;20.25;17.25;;;;;19.22;68.02;101255.47;5055068;28;45515;-77
2022/09/11 09:46:58;;;;;;;;;15.00;15.00;;;;;19.25;67.97;101248.06;5055337;28;45717;-78
2022/09/11 09:49:33;;;;;;;;;17.75;17.00;;;;;19.35;68.27;101255.13;5056263;28;45842;-80
2022/09/11 09:52:08;;;;;;;;;16.25;16.00;;;;;19.37;67.98;101245.19;5054461;28;46234;-78
2022/09/11 09:54:35;;;;;;;;;14.75;13.75;;;;;19.42;67.72;101248.25;5055893;28;46421;-77
2022/09/11 09:57:07;;;;;;;;;18.50;18.50;;;;;19.48;67.41;101247.69;5055109;28;46250;-78
2022/09/11 09:59:56;;;;;;;;;19.75;19.50;;;;;19.53;67.57;101245.41;5055419;28;45573;-77
2022/09/11 10:02:42;;;;;;;;;18.00;16.00;;;;;19.58;67.20;101243.13;5055972;28;45856;-77
2022/09/11 10:05:24;;;;;;;;;17.00;16.00;;;;;19.63;67.53;101239.03;5055377;28;46799;-77
2022/09/11 10:07:50;;;;;;;;;16.75;15.25;;;;;19.70;67.54;101241.91;5054186;28;48499;-77
2022/09/11 10:10:21;;;;;;;;;18.25;17.00;;;;;19.74;67.00;101239.78;5055682;28;45634;-76
2022/09/11 10:12:47;;;;;;;;;19.00;17.75;;;;;19.78;66.77;101235.81;5055768;28;45642;-77
2022/09/11 10:15:21;;;;;;;;;14.25;12.75;;;;;19.81;66.55;101240.84;5055200;28;45589;-78
2022/09/11 10:17:46;;;;;;;;;17.25;16.00;;;;;19.87;66.85;101241.03;5055044;28;46429;-79
2022/09/11 10:20:14;;;;;;;;;13.00;13.00;;;;;19.96;66.60;101249.94;5071022;28;45862;-79
2022/09/11 10:22:40;;;;;;;;;15.50;14.75;;;;;19.93;66.41;101232.44;5055779;28;45652;-78
2022/09/11 10:25:21;;;;;;;;;15.50;13.75;;;;;20.05;66.33;101233.88;5053822;28;45631;-76
2022/09/11 10:27:52;;;;;;;;;15.50;15.50;;;;;20.10;66.04;101236.06;5055347;28;46109;-77
2022/09/11 10:30:23;;;;;;;;;18.25;15.25;;;;;20.15;65.71;101235.59;5055089;28;45642;-77
2022/09/11 10:32:49;;;;;;;;;15.00;13.75;;;;;20.17;65.54;101228.31;5055386;28;45484;-77
2022/09/11 10:35:16;;;;;;;;;18.25;18.00;;;;;20.21;65.50;101229.66;5053366;28;48818;-79
2022/09/11 10:37:42;;;;;;;;;13.75;12.25;;;;;20.19;65.65;101221.81;5055034;28;46107;-77
2022/09/11 10:40:20;;;;;;;;;8.00;7.75;;;;;20.33;64.96;101231.94;5055295;28;45804;-79
2022/09/11 10:42:47;;;;;;;;;13.50;12.00;;;;;20.35;65.43;101227.28;5055127;28;45870;-78
2022/09/11 10:45:17;;;;;;;;;13.00;9.00;;;;;20.46;64.83;101227.03;5054535;28;47354;-81
2022/09/11 10:47:44;;;;;;;;;6.75;5.75;;;;;20.49;64.47;101228.53;5054069;28;47445;-80
2022/09/11 10:50:16;;;;;;;;;8.75;8.25;;;;;20.59;64.43;101223.09;5055014;28;45770;-75
2022/09/11 10:53:03;;;;;;;;;11.00;9.75;;;;;20.62;64.00;101223.59;5055008;28;45865;-78
2022/09/11 10:55:34;;;;;;;;;10.25;8.50;;;;;20.66;63.27;101206.34;5054306;28;46332;-76
2022/09/11 10:58:12;;;;;;;;;9.25;8.50;;;;;20.73;63.50;101209.22;5054404;28;46328;-78
2022/09/11 11:00:38;;;;;;;;;6.75;6.25;;;;;20.78;63.01;101207.69;5054469;28;45788;-76
2022/09/11 11:03:18;;;;;;;;;8.00;8.00;;;;;20.84;63.02;101203.56;5054825;28;45647;-81
2022/09/11 11:06:11;;;;;;;;;10.50;8.50;;;;;20.92;62.95;101203.59;5054599;28;47416;-79
2022/09/11 11:09:04;;;;;;;;;10.75;9.50;;;;;20.99;63.14;101195.81;5070241;28;46776;-79
2022/09/11 11:11:57;;;;;;;;;11.00;9.25;;;;;21.01;62.48;101186.63;5053298;28;45796;-80
2022/09/11 11:14:28;;;;;;;;;9.25;8.50;;;;;21.08;62.27;101193.00;5054846;28;45611;-79
2022/09/11 11:17:30;;;;;;;;;10.75;9.00;;;;;21.15;62.66;101186.06;5054090;28;47154;-77
2022/09/11 11:20:28;;;;;;;;;9.25;9.00;;;;;21.24;62.50;101186.91;5052001;28;46260;-76
2022/09/11 11:23:31;;;;;;;;;13.75;12.50;;;;;21.31;62.07;101193.25;5052466;28;45727;-81
2022/09/11 11:26:05;;;;;;;;;10.25;9.50;;;;;21.33;62.60;101180.56;5051509;28;45660;-78
2022/09/11 11:32:01;;;;;;;;;12.00;10.25;;;;;21.50;61.67;101186.75;5051730;28;45710;-78
2022/09/11 11:34:51;;;;;;;;;8.75;8.75;;;;;21.47;61.49;101169.28;5052201;28;45799;-77
2022/09/11 11:37:22;;;;;;;;;7.00;7.00;;;;;21.57;61.14;101174.44;5052124;28;45677;-79
2022/09/11 11:40:22;;;;;;;;;7.00;7.00;;;;;21.62;60.31;101174.78;5052202;28;47416;-81
2022/09/11 11:47:11;;;;;;;;;5.00;5.00;;;;;21.72;60.45;101170.94;4991705;28;45793;-78
2022/09/11 11:49:54;;;;;;;;;6.25;6.00;;;;;21.76;59.81;101176.75;4992234;28;45674;-79
2022/09/11 11:52:33;;;;;;;;;8.00;7.00;;;;;21.80;59.70;101172.78;4991959;28;46698;-79
2022/09/11 11:55:04;;;;;;;;;5.50;4.75;;;;;21.86;59.91;101181.94;5010194;28;47185;-78
2022/09/11 11:57:38;;;;;;;;;5.00;5.00;;;;;21.91;58.30;101179.59;5011825;28;45767;-78
2022/09/11 12:03:43;;;;;;;;;7.00;7.00;;;;;21.97;58.49;101181.63;5011728;28;46211;-79
2022/09/11 12:06:10;;;;;;;;;5.50;5.50;;;;;21.99;58.39;101177.78;5012131;28;46469;-79
2022/09/11 12:08:46;;;;;;;;;5.25;5.25;;;;;22.02;58.58;101172.13;5011926;28;45704;-78
2022/09/11 12:11:16;;;;;;;;;5.00;5.00;;;;;21.96;57.25;101156.78;5011977;28;46089;-78
2022/09/11 12:13:45;;;;;;;;;4.50;4.25;;;;;22.01;57.08;101167.78;5011575;28;47466;-78
2022/09/11 12:16:32;;;;;;;;;4.75;4.00;;;;;22.05;57.00;101163.75;5011043;28;46328;-78
2022/09/11 12:19:15;;;;;;;;;6.00;3.50;;;;;22.07;57.44;101171.59;5029477;28;45745;-78
2022/09/11 12:22:05;;;;;;;;;5.50;4.75;;;;;22.08;56.33;101170.56;5054053;28;45621;-79
2022/09/11 12:25:18;;;;;;;;;4.00;4.00;;;;;22.12;56.76;101170.09;5054354;28;45851;-78
2022/09/11 12:27:49;;;;;;;;;4.75;4.75;;;;;22.17;57.29;101174.91;5051659;28;45898;-78
2022/09/11 12:30:14;;;;;;;;;5.00;5.00;;;;;22.21;56.97;101164.72;5051128;28;45880;-78
2022/09/11 12:32:48;;;;;;;;;5.00;5.00;;;;;22.16;57.05;101150.06;5051780;28;45717;-80
2022/09/11 12:35:33;;;;;;;;;5.50;5.00;;;;;22.27;56.85;101166.72;5050962;28;45928;-78
2022/09/11 12:38:07;;;;;;;;;5.50;5.00;;;;;22.29;56.37;101159.38;5051375;28;47349;-80
2022/09/11 12:40:39;;;;;;;;;4.75;4.25;;;;;22.32;56.56;101157.19;5051167;28;45672;-78
2022/09/11 12:46:26;;;;;;;;;4.25;4.25;;;;;22.43;56.61;101154.16;5050934;28;45598;-80